Santa Monica, CA

07:37 AM PDT die 27o March, anno 2017 (GMT -0700)
Santa Monica Municipal | | Change Station
Active Advisory: Wind Advisory

Elev 174 ft 34.02 °N, 118.45 °W | Updated 3 minutes ago

Serena
Serena
54 °F
Feels Like 54 °F
N
0
Ventus Variabilis Ventus from Aquilo

Hodie
High -- | Low -- °F
--% Chance of Precip.
Yesterday
High -- | Low -- °F
Precip. -- in
Pressio 30.03 in
Visibilitas 10.0 milia passuum
Clouds Plerumque Nubila 1700 ft
Frigus in quo Ros apparet 52 °F
Umor 93%
Rainfall 0.00 in
Snow Depth Not available.
6:47 AM 7:11 PM
Waning Crescent, 0% visible
SPECI KSMO 271434Z 00000KT 10SM BKN017 12/11 A3003 RMK AO2 T01220111
Pressio 30.03 in
Visibilitas 10.0 milia passuum
Clouds Plerumque Nubila 1700 ft
Frigus in quo Ros apparet 52 °F
Umor 93%
Rainfall 0.00 in
Snow Depth Not available.
6:47 AM 7:11 PM
Waning Crescent, 0% visible
SPECI KSMO 271434Z 00000KT 10SM BKN017 12/11 A3003 RMK AO2 T01220111

Get Your Daily Forecast Email!

Thanks for signing up!

Be on the lookout for a verification email in your inbox.

You'll start receiving severe weather alerts in your inbox..

×

10-Day Weather Forecast

Almanac

Astronomy

Mar. 27, 2017 Rise Set
Actual Time
Civil Twilight
Nautical Twilight
Astronomical Twilight
Moon
Length Of Visible Light
Length of Day
Tomorrow will be .
, % of the Moon is Illuminated

Today's Extremes

State Highs State Lows

Community

WunderPhotos

Upload Photos

1,962,540 photos uploaded!

WunderBlog® & News

Nearby

Air Quality

  Air Quality AQ Index Pollutant
Not available.

Snow Depth

Station Depth Elevation

Earthquake Activity

City Distance Mag. Time & Date
Minimum magnitude displayed is 2.5.

Earthquake Activity

City Distance Mag. Time & Date
Minimum magnitude displayed is 2.5.

Coastal Water Temperatures

Locus Calor

Stations

Nearby Weather Stations

Station Location Temp Frigus Venti Frigus in quo Ros apparet Umor Ventus Precip. Elev Renovata Type
                   

Watches & Warnings

Wind Advisory
Issued: 5:07 AM PDT Mar. 27, 2017 – National Weather Service

... Wind Advisory remains in effect from 3 PM this afternoon to
9 am PDT Tuesday...

* winds and timing... west to northwest winds 15 to 25 mph with
gusts to 35 mph will develop this afternoon, strongest near
the coast. Areas of north winds 15 to 25 mph with gusts to 40
mph are expected tonight and early Tuesday, strongest below
passes and canyons from Malibu to the Hollywood Hills, and
through western portions of Los Angeles.

* Impacts... cross winds can make driving difficult, especially
for drivers of high profile vehicles and vehicles towing
trailers.

Precautionary/preparedness actions...

When driving, use extra caution. Be prepared for sudden gusty
cross winds.